Etusivu
METAR-TAF:

METAR-TAF

Lentoasemat :

Pafoksen kansainvälinen lentoasema

Pafos, Kypros

Leveyspiiri: 34-43N, Pituuspiiri: 032-29E, korkeus merenpinnasta: 11 m

Tämänhetkinen sää

Tämä raportti tehtiin 27 minuuttia sitten, kello 16.30 UTC
Tuuli 14 kn lännestä/luoteesta
Lämpötila 20°C
Kosteus 68%
Ilmanpaine 1017 hPa
Näkyvyys 10 km tai enemmän
Hajanaisia pilviä 2500 ft:n korkeudessa

METAR: LCPH 291630Z 29014KT 9999 SCT025 20/14 Q1017

Aika: 19:57 (16:57 UTC)

Sääennuste

Tämä raportti tehtiin 5 tuntia ja 27 minuuttia sitten, kello 11.30 UTC
Ennuste voimassa 29. päivästä klo 12 UTC - 30. päivään klo 12 UTC
Tuuli 19 kn lännestä
Näkyvyys 10 km tai enemmän
Hajanaisia pilviä 2000 ft:n korkeudessa
Tulossa
29. päivästä klo 19 UTC - 29. päivään klo 22 UTC
Tuuli 9 kn pohjoisen/luoteesta
Tulossa
30. päivästä klo 06 UTC - 30. päivään klo 09 UTC
Tuuli 13 kn lännestä

TAF: LCPH 291130Z 2912/3012 28019KT 9999 SCT020 BECMG 2919/2922 34009KT BECMG 3006/3009 28013KT

Säähavainnot ja -ennusteet yli 4000 lentoasemalta (METAR- ja TAF-raportit).

Käytössä olevat sääasemat on merkitty karttaan keltaisilla ja punaisilla pisteillä.

Aseta hiiri pisteen päälle nähdäksesi sääaseman nimen.

Klikkaa sitten nähdäksesi säähavainnot ja -ennusteet.

Kartan vaihtaminen: klikkaa mustalla rastilla varustettuja vihreitä pisteitä, niin voit zoomata sisään; viivalla varustettua vihreää pistettä, niin voit zoomata ulos tai vihreitä nuolia, niin pääset viereisille kartoille.


METAR-TAF: